Time;durP1;ratioP1;P1;durP2;ratioP2;P2;SDS_P1;SDS_P2;PMS_P1;PMS_P2;Temp;Humidity;BMP_temperature;BMP_pressure;BME280_temperature;BME280_humidity;BME280_pressure;Samples;Min_cycle;Max_cycle;Signal;HPM_P1;HPM_P2
2021/04/29 00:00:41;;;;;;;12.93;10.77;;;11.50;99.90;;;;;;5020473;28;20440;-70
2021/04/29 00:03:07;;;;;;;15.10;9.53;;;11.50;99.90;;;;;;5018273;28;20186;-70
2021/04/29 00:05:33;;;;;;;14.00;10.83;;;11.40;99.90;;;;;;5012037;28;20659;-70
2021/04/29 00:07:58;;;;;;;11.57;10.40;;;11.20;99.90;;;;;;5021766;28;20553;-70
2021/04/29 00:10:29;;;;;;;13.90;10.70;;;11.00;99.90;;;;;;5021441;28;20981;-70
2021/04/29 00:12:54;;;;;;;11.67;10.47;;;10.80;99.90;;;;;;5019187;28;20202;-70
2021/04/29 00:15:20;;;;;;;13.47;10.60;;;10.80;99.90;;;;;;5021229;28;20473;-70
2021/04/29 00:17:46;;;;;;;17.43;10.40;;;10.80;99.90;;;;;;5024282;28;20607;-70
2021/04/29 00:20:15;;;;;;;12.07;10.10;;;10.70;99.90;;;;;;5021873;28;20177;-70
2021/04/29 00:22:41;;;;;;;22.20;13.63;;;10.80;99.90;;;;;;5024416;28;20560;-70
2021/04/29 00:25:08;;;;;;;15.43;11.83;;;10.70;99.90;;;;;;5022179;28;20935;-70
2021/04/29 00:27:34;;;;;;;18.97;12.13;;;10.50;99.90;;;;;;5022370;28;20237;-70
2021/04/29 00:29:59;;;;;;;18.00;11.30;;;10.50;99.90;;;;;;5020043;28;20906;-70
2021/04/29 00:32:25;;;;;;;13.87;11.50;;;10.30;99.90;;;;;;5021484;28;20217;-70
2021/04/29 00:34:50;;;;;;;14.33;11.47;;;10.10;99.90;;;;;;5022043;28;20178;-70
2021/04/29 00:37:16;;;;;;;16.63;12.60;;;10.10;99.90;;;;;;5020942;28;20596;-69
2021/04/29 00:39:42;;;;;;;16.93;12.40;;;10.00;99.90;;;;;;5023313;28;20285;-70
2021/04/29 00:42:08;;;;;;;13.90;11.87;;;10.00;99.90;;;;;;5019812;28;20242;-70
2021/04/29 00:44:34;;;;;;;15.03;12.00;;;10.10;99.90;;;;;;5021847;28;20178;-70
2021/04/29 00:47:00;;;;;;;14.23;12.83;;;10.00;99.90;;;;;;5019197;28;20452;-70
2021/04/29 00:49:26;;;;;;;19.70;13.30;;;10.00;99.90;;;;;;5022848;28;20190;-70
2021/04/29 00:51:52;;;;;;;18.10;13.50;;;9.90;99.90;;;;;;5016878;28;20486;-70
2021/04/29 00:54:17;;;;;;;16.63;13.57;;;10.00;99.90;;;;;;5022468;28;20507;-69
2021/04/29 00:56:43;;;;;;;20.53;13.90;;;10.10;99.90;;;;;;5020734;28;20185;-69
2021/04/29 00:59:09;;;;;;;14.57;13.07;;;10.00;99.90;;;;;;5021887;28;20175;-70
2021/04/29 01:01:35;;;;;;;17.67;13.73;;;10.00;99.90;;;;;;5019951;28;20231;-70
2021/04/29 01:04:18;;;;;;;16.17;14.27;;;9.90;99.90;;;;;;5020927;28;20187;-70
2021/04/29 01:06:52;;;;;;;15.63;13.00;;;9.90;99.90;;;;;;5016712;28;20428;-70
2021/04/29 01:09:27;;;;;;;16.33;12.80;;;9.90;99.90;;;;;;5021570;28;20430;-70
2021/04/29 01:12:04;;;;;;;17.10;14.43;;;9.90;99.90;;;;;;5021520;28;20772;-69
2021/04/29 01:14:30;;;;;;;16.80;13.80;;;10.00;99.90;;;;;;5021478;28;20482;-70
2021/04/29 01:16:57;;;;;;;14.97;13.37;;;10.00;99.90;;;;;;5018051;28;20460;-70
2021/04/29 01:19:40;;;;;;;19.40;13.97;;;10.00;99.90;;;;;;5020787;28;20782;-70
2021/04/29 01:22:07;;;;;;;14.63;13.10;;;10.00;99.90;;;;;;5018664;28;20463;-70
2021/04/29 01:24:41;;;;;;;17.17;13.87;;;9.90;99.90;;;;;;5021908;28;20429;-70
2021/04/29 01:27:07;;;;;;;14.17;12.67;;;9.90;99.90;;;;;;5020896;28;20425;-70
2021/04/29 01:29:34;;;;;;;16.77;14.03;;;10.00;99.90;;;;;;5020708;28;20440;-70
2021/04/29 01:32:00;;;;;;;14.77;12.27;;;9.90;99.90;;;;;;5014340;28;20417;-70
2021/04/29 01:34:32;;;;;;;18.40;14.80;;;9.90;99.90;;;;;;5018152;28;20426;-70
2021/04/29 01:36:58;;;;;;;16.00;13.30;;;9.90;99.90;;;;;;5020285;28;20894;-70
2021/04/29 01:39:24;;;;;;;13.10;11.80;;;9.90;99.90;;;;;;5017752;28;20475;-70
2021/04/29 01:41:52;;;;;;;17.30;13.60;;;9.90;99.90;;;;;;5018949;28;20174;-70
2021/04/29 01:44:20;;;;;;;14.40;12.87;;;10.00;99.90;;;;;;5020901;28;20181;-70
2021/04/29 01:46:46;;;;;;;14.20;12.77;;;10.00;99.90;;;;;;5019201;28;21158;-70
2021/04/29 01:49:13;;;;;;;15.60;13.37;;;9.90;99.90;;;;;;5012196;28;20448;-70
2021/04/29 01:51:40;;;;;;;13.13;11.83;;;9.90;99.90;;;;;;5021522;28;20425;-70
2021/04/29 01:54:09;;;;;;;15.80;13.33;;;9.90;99.90;;;;;;5019590;28;20459;-70
2021/04/29 01:56:36;;;;;;;16.00;13.93;;;9.90;99.90;;;;;;5015641;28;20433;-70
2021/04/29 01:59:04;;;;;;;13.93;12.53;;;9.90;99.90;;;;;;5018993;28;20429;-70
2021/04/29 02:01:29;;;;;;;15.80;14.10;;;9.90;99.90;;;;;;5020126;28;20441;-70
2021/04/29 02:03:55;;;;;;;17.10;13.90;;;9.80;99.90;;;;;;5020400;28;20444;-70
2021/04/29 02:06:22;;;;;;;18.10;13.60;;;9.70;99.90;;;;;;5018629;28;20171;-70
2021/04/29 02:08:48;;;;;;;16.57;13.97;;;9.60;99.90;;;;;;5021399;28;20194;-71
2021/04/29 02:11:15;;;;;;;16.73;13.20;;;9.60;99.90;;;;;;5020585;28;20432;-70
2021/04/29 02:13:45;;;;;;;25.00;14.80;;;9.60;99.90;;;;;;5015573;28;20567;-70
2021/04/29 02:16:21;;;;;;;19.23;14.07;;;9.50;99.90;;;;;;5017416;28;20432;-70
2021/04/29 02:18:49;;;;;;;19.73;13.43;;;9.30;99.90;;;;;;5019402;28;20429;-70
2021/04/29 02:21:19;;;;;;;18.17;15.13;;;9.30;99.90;;;;;;5017753;28;20424;-70
2021/04/29 02:23:46;;;;;;;17.43;14.60;;;9.20;99.90;;;;;;5019303;28;20424;-70
2021/04/29 02:26:13;;;;;;;19.13;14.40;;;9.30;99.90;;;;;;5018190;28;20518;-70
2021/04/29 02:28:39;;;;;;;15.47;13.00;;;9.30;99.90;;;;;;5020155;28;20433;-69
2021/04/29 02:31:05;;;;;;;18.27;13.43;;;9.30;99.90;;;;;;5019025;28;20456;-70
2021/04/29 02:33:32;;;;;;;15.63;12.97;;;9.30;99.90;;;;;;5019933;28;21088;-70
2021/04/29 02:35:59;;;;;;;17.37;13.43;;;9.30;99.90;;;;;;5018803;28;20433;-70
2021/04/29 02:38:25;;;;;;;15.03;13.43;;;9.20;99.90;;;;;;5020730;28;20749;-69
2021/04/29 02:40:51;;;;;;;17.67;13.77;;;9.30;99.90;;;;;;5020027;28;20441;-70
2021/04/29 02:43:17;;;;;;;17.53;13.10;;;9.10;99.90;;;;;;5020885;28;20895;-70
2021/04/29 02:45:45;;;;;;;15.00;12.53;;;9.20;99.90;;;;;;5015791;28;22078;-70
2021/04/29 02:48:11;;;;;;;17.13;13.60;;;9.20;99.90;;;;;;5018915;28;20531;-70
2021/04/29 02:50:44;;;;;;;13.30;11.63;;;9.20;99.90;;;;;;5016792;28;20437;-70
2021/04/29 02:53:15;;;;;;;14.20;12.77;;;9.10;99.90;;;;;;5019009;28;20464;-70
2021/04/29 02:55:43;;;;;;;12.90;11.57;;;9.10;99.90;;;;;;5019241;28;20441;-70
2021/04/29 02:58:09;;;;;;;17.37;12.73;;;9.20;99.90;;;;;;5019039;28;20467;-70
2021/04/29 03:00:38;;;;;;;13.20;11.90;;;9.20;99.90;;;;;;5020069;28;20463;-70
2021/04/29 03:03:06;;;;;;;15.67;12.23;;;9.20;99.90;;;;;;5018912;28;20436;-70
2021/04/29 03:05:32;;;;;;;12.70;11.40;;;9.10;99.90;;;;;;5017591;28;20428;-70
2021/04/29 03:07:58;;;;;;;13.10;11.30;;;9.10;99.90;;;;;;5019194;28;20468;-70
2021/04/29 03:10:24;;;;;;;14.00;12.00;;;9.10;99.90;;;;;;5020520;28;20288;-71
2021/04/29 03:12:49;;;;;;;15.97;11.70;;;9.10;99.90;;;;;;5021477;28;20507;-70
2021/04/29 03:15:16;;;;;;;12.70;11.40;;;9.10;99.90;;;;;;5018656;28;20186;-70
2021/04/29 03:17:41;;;;;;;14.33;11.97;;;9.10;99.90;;;;;;5032575;28;20205;-70
2021/04/29 03:20:08;;;;;;;15.33;11.50;;;9.10;99.90;;;;;;5019237;28;20428;-70
2021/04/29 03:22:34;;;;;;;11.90;10.70;;;9.10;99.90;;;;;;5022314;28;20270;-70
2021/04/29 03:25:00;;;;;;;13.20;11.37;;;9.20;99.90;;;;;;5014050;28;20528;-70
2021/04/29 03:27:27;;;;;;;14.93;12.13;;;9.10;99.90;;;;;;5021354;28;20993;-70
2021/04/29 03:29:53;;;;;;;15.00;12.13;;;9.00;99.90;;;;;;5019407;28;20437;-70
2021/04/29 03:32:19;;;;;;;14.30;12.43;;;9.00;99.90;;;;;;5019170;28;20440;-70
2021/04/29 03:34:45;;;;;;;12.20;11.00;;;8.90;99.90;;;;;;5021006;28;20429;-70
2021/04/29 03:37:11;;;;;;;17.27;12.93;;;8.90;99.90;;;;;;5022521;28;20444;-70
2021/04/29 03:39:36;;;;;;;12.83;11.53;;;8.90;99.90;;;;;;5023132;28;20186;-70
2021/04/29 03:42:06;;;;;;;16.20;12.53;;;8.90;99.90;;;;;;5011125;28;20441;-70
2021/04/29 03:44:31;;;;;;;16.27;12.67;;;8.90;99.90;;;;;;5024432;28;20265;-70
2021/04/29 03:46:57;;;;;;;12.20;10.77;;;9.00;99.90;;;;;;5019590;28;20442;-70
2021/04/29 03:49:23;;;;;;;13.10;11.70;;;9.00;99.90;;;;;;5024108;28;20452;-70
2021/04/29 03:51:49;;;;;;;14.40;11.87;;;8.90;99.90;;;;;;5021407;28;20189;-70
2021/04/29 03:54:14;;;;;;;13.13;11.73;;;8.90;99.90;;;;;;5022670;28;20248;-70
2021/04/29 03:56:40;;;;;;;19.10;12.03;;;8.90;99.90;;;;;;5021595;28;20178;-70
2021/04/29 03:59:06;;;;;;;13.13;11.80;;;8.90;99.90;;;;;;5021379;28;20221;-70
2021/04/29 04:01:32;;;;;;;12.93;11.37;;;8.90;99.90;;;;;;5022770;28;20210;-70
2021/04/29 04:03:57;;;;;;;13.90;12.40;;;8.90;99.90;;;;;;5022089;28;20182;-70
2021/04/29 04:06:23;;;;;;;14.60;12.20;;;8.90;99.90;;;;;;5020932;28;20183;-71
2021/04/29 04:08:48;;;;;;;12.00;10.80;;;9.00;99.90;;;;;;5020224;28;20202;-71
2021/04/29 04:11:14;;;;;;;12.10;11.00;;;9.00;99.90;;;;;;5020869;28;20202;-70
2021/04/29 04:13:40;;;;;;;13.20;11.67;;;9.00;99.90;;;;;;5021443;28;20210;-70
2021/04/29 04:16:06;;;;;;;13.83;10.77;;;9.00;99.90;;;;;;5020399;28;20174;-70
2021/04/29 04:18:32;;;;;;;20.10;12.80;;;8.90;99.90;;;;;;5023486;28;20209;-70
2021/04/29 04:20:57;;;;;;;13.20;11.80;;;8.90;99.90;;;;;;5020300;28;20464;-70
2021/04/29 04:23:23;;;;;;;13.90;12.40;;;8.90;99.90;;;;;;5019560;28;20538;-70
2021/04/29 04:25:48;;;;;;;12.03;10.87;;;8.90;99.90;;;;;;5022825;28;20246;-70
2021/04/29 04:28:14;;;;;;;13.00;11.00;;;8.90;99.90;;;;;;5024480;28;20520;-70
2021/04/29 04:30:40;;;;;;;16.70;12.63;;;8.90;99.90;;;;;;5021596;28;20511;-70
2021/04/29 04:33:05;;;;;;;16.07;12.03;;;8.90;99.90;;;;;;5024199;28;20202;-70
2021/04/29 04:35:31;;;;;;;13.77;11.70;;;8.80;99.90;;;;;;5020457;28;20182;-70
2021/04/29 04:37:56;;;;;;;14.10;12.20;;;8.70;99.90;;;;;;5022362;28;20269;-70
2021/04/29 04:40:22;;;;;;;14.23;12.60;;;8.70;99.90;;;;;;5020738;28;20189;-70
2021/04/29 04:42:48;;;;;;;13.70;11.90;;;8.70;99.90;;;;;;5023054;28;20194;-69
2021/04/29 04:45:14;;;;;;;14.27;12.70;;;8.60;99.90;;;;;;5019410;28;20183;-70
2021/04/29 04:47:39;;;;;;;15.17;12.20;;;8.70;99.90;;;;;;5019178;28;20567;-70
2021/04/29 04:50:07;;;;;;;14.57;12.57;;;8.70;99.90;;;;;;5020297;28;20624;-70
2021/04/29 04:52:33;;;;;;;14.23;12.17;;;8.80;99.90;;;;;;5019900;28;21002;-70
2021/04/29 04:54:59;;;;;;;11.27;10.13;;;8.80;99.90;;;;;;5018665;28;20929;-70
2021/04/29 04:57:24;;;;;;;12.60;10.80;;;8.80;99.90;;;;;;5019591;28;20448;-70
2021/04/29 04:59:50;;;;;;;13.03;11.80;;;9.00;99.90;;;;;;5019781;28;20582;-71
2021/04/29 05:02:16;;;;;;;12.23;11.03;;;9.10;99.90;;;;;;5016306;28;20189;-71
2021/04/29 05:04:42;;;;;;;15.03;11.33;;;9.00;99.90;;;;;;5016197;28;20652;-72
2021/04/29 05:07:10;;;;;;;11.67;10.47;;;9.10;99.90;;;;;;5022397;28;20433;-71
2021/04/29 05:09:36;;;;;;;12.23;11.03;;;9.00;99.90;;;;;;5021105;28;20305;-72
2021/04/29 05:12:01;;;;;;;12.80;11.17;;;9.00;99.90;;;;;;5017591;28;20508;-71
2021/04/29 05:14:29;;;;;;;12.80;11.37;;;9.00;99.90;;;;;;5020600;28;20658;-71
2021/04/29 05:16:55;;;;;;;16.63;11.23;;;9.10;99.90;;;;;;5022286;28;20189;-71
2021/04/29 05:19:21;;;;;;;14.47;11.50;;;9.00;99.90;;;;;;5018540;28;20434;-72
2021/04/29 05:21:47;;;;;;;13.40;12.00;;;9.00;99.90;;;;;;5012485;28;20448;-71
2021/04/29 05:24:13;;;;;;;12.70;11.40;;;9.00;99.90;;;;;;5016522;28;20262;-72
2021/04/29 05:26:38;;;;;;;13.50;11.90;;;9.00;99.90;;;;;;5016982;28;20534;-72
2021/04/29 05:29:05;;;;;;;13.20;11.80;;;9.10;99.90;;;;;;5014359;28;20198;-72
2021/04/29 05:31:30;;;;;;;16.00;11.50;;;9.10;99.90;;;;;;5013158;28;20547;-72
2021/04/29 05:33:56;;;;;;;14.47;12.67;;;9.10;99.90;;;;;;5017601;28;20504;-72
2021/04/29 05:36:22;;;;;;;16.47;12.33;;;9.00;99.90;;;;;;5015757;28;20175;-72
2021/04/29 05:38:47;;;;;;;14.37;12.87;;;9.10;99.90;;;;;;5014739;28;20178;-72
2021/04/29 05:41:13;;;;;;;16.20;12.10;;;9.10;99.90;;;;;;5018882;28;20264;-72
2021/04/29 05:43:38;;;;;;;19.00;13.10;;;9.10;99.90;;;;;;5013022;28;20187;-72
2021/04/29 05:46:04;;;;;;;14.17;12.40;;;9.10;99.90;;;;;;5014236;28;20193;-71
2021/04/29 05:48:30;;;;;;;12.53;11.33;;;9.10;99.90;;;;;;5007748;28;20244;-72
2021/04/29 05:50:57;;;;;;;13.50;12.10;;;9.00;99.90;;;;;;5015268;28;20179;-72
2021/04/29 05:53:22;;;;;;;13.13;11.83;;;9.10;99.90;;;;;;5013635;28;20240;-72
2021/04/29 05:55:48;;;;;;;15.33;13.00;;;9.10;99.90;;;;;;5015540;28;20466;-71
2021/04/29 05:58:14;;;;;;;14.43;12.20;;;9.20;99.90;;;;;;5018206;28;20174;-71
2021/04/29 06:00:40;;;;;;;13.43;11.73;;;9.20;99.90;;;;;;5020979;28;20590;-71
2021/04/29 06:03:06;;;;;;;14.33;12.43;;;9.20;99.90;;;;;;5019099;28;20194;-71
2021/04/29 06:05:32;;;;;;;14.57;12.57;;;9.20;99.90;;;;;;5019323;28;20425;-72
2021/04/29 06:08:01;;;;;;;15.07;13.50;;;9.30;99.90;;;;;;5019269;28;20477;-72
2021/04/29 06:10:28;;;;;;;19.10;13.40;;;9.30;99.90;;;;;;5015348;28;20194;-72
2021/04/29 06:12:54;;;;;;;15.27;13.60;;;9.40;99.90;;;;;;5015197;28;20457;-71
2021/04/29 06:15:20;;;;;;;17.17;15.00;;;9.30;99.90;;;;;;5013381;28;21018;-72
2021/04/29 06:17:46;;;;;;;16.20;13.90;;;9.30;99.90;;;;;;5010133;28;20178;-72
2021/04/29 06:20:13;;;;;;;17.23;15.30;;;9.30;99.90;;;;;;5012415;28;20430;-72
2021/04/29 06:22:39;;;;;;;15.53;13.27;;;9.30;99.90;;;;;;5010408;28;20225;-71
2021/04/29 06:25:06;;;;;;;15.33;13.63;;;9.30;99.90;;;;;;5010970;28;20844;-71
2021/04/29 06:27:32;;;;;;;16.53;14.17;;;9.30;99.90;;;;;;5013440;28;20483;-71
2021/04/29 06:29:57;;;;;;;14.47;12.97;;;9.30;99.90;;;;;;5011023;28;20437;-71
2021/04/29 06:32:23;;;;;;;18.03;14.20;;;9.30;99.90;;;;;;5012834;28;20265;-71
2021/04/29 06:34:49;;;;;;;19.50;15.00;;;9.40;99.90;;;;;;5009412;28;20531;-71
2021/04/29 06:37:14;;;;;;;16.17;13.97;;;9.30;99.90;;;;;;5007998;28;20178;-71
2021/04/29 06:39:41;;;;;;;15.80;14.00;;;9.30;99.90;;;;;;5009333;28;20596;-71
2021/04/29 06:42:07;;;;;;;18.00;13.57;;;9.30;99.90;;;;;;5006887;28;20170;-72
2021/04/29 06:44:33;;;;;;;18.47;14.77;;;9.30;99.90;;;;;;5007853;28;20498;-72
2021/04/29 06:46:59;;;;;;;15.40;13.83;;;9.40;99.90;;;;;;5016980;28;20175;-72
2021/04/29 06:49:27;;;;;;;18.50;15.00;;;9.40;99.90;;;;;;5017419;28;20197;-72
2021/04/29 06:51:54;;;;;;;15.53;13.73;;;9.40;99.90;;;;;;5006463;28;20202;-71
2021/04/29 06:54:19;;;;;;;16.37;14.63;;;9.30;99.90;;;;;;5005946;28;20460;-72
2021/04/29 06:56:45;;;;;;;17.57;15.30;;;9.40;99.90;;;;;;5010556;28;20445;-72
2021/04/29 06:59:12;;;;;;;18.37;16.47;;;9.40;99.90;;;;;;5011857;28;20758;-72
2021/04/29 07:01:38;;;;;;;14.97;12.97;;;9.30;99.90;;;;;;5011331;28;20218;-72
2021/04/29 07:04:04;;;;;;;18.73;14.30;;;9.40;99.90;;;;;;5010266;28;20902;-71
2021/04/29 07:06:30;;;;;;;17.70;15.30;;;9.40;99.90;;;;;;5011367;28;20627;-71
2021/04/29 07:08:56;;;;;;;17.40;14.20;;;9.50;99.90;;;;;;5009415;28;20444;-72
2021/04/29 07:11:22;;;;;;;15.23;13.73;;;9.50;99.90;;;;;;5019058;28;20437;-72
2021/04/29 07:13:48;;;;;;;15.40;13.60;;;9.50;99.90;;;;;;5021469;28;20532;-72
2021/04/29 07:16:14;;;;;;;16.77;14.70;;;9.60;99.90;;;;;;5023214;28;20420;-72
2021/04/29 07:18:39;;;;;;;16.77;14.90;;;9.70;99.90;;;;;;5018259;28;20424;-72
2021/04/29 07:21:05;;;;;;;17.47;14.70;;;9.70;99.90;;;;;;5015961;28;20178;-72
2021/04/29 07:23:31;;;;;;;15.77;14.17;;;9.70;99.90;;;;;;5009028;28;20272;-72
2021/04/29 07:25:57;;;;;;;16.70;14.13;;;9.80;99.90;;;;;;5020811;28;20448;-71
2021/04/29 07:28:24;;;;;;;19.03;14.73;;;9.80;99.90;;;;;;5013688;28;20187;-71
2021/04/29 07:30:50;;;;;;;20.17;15.70;;;9.70;99.90;;;;;;5013474;28;20528;-71
2021/04/29 07:33:16;;;;;;;17.87;14.73;;;9.70;99.90;;;;;;5022887;28;20937;-72
2021/04/29 07:35:42;;;;;;;22.40;16.07;;;9.80;99.90;;;;;;5020113;28;20891;-72
2021/04/29 07:38:09;;;;;;;16.23;14.67;;;9.80;99.90;;;;;;5020925;28;20430;-72
2021/04/29 07:40:36;;;;;;;18.40;15.10;;;9.80;99.90;;;;;;5018631;28;20459;-72
2021/04/29 07:43:02;;;;;;;17.63;15.43;;;9.90;99.90;;;;;;5010994;28;20436;-72
2021/04/29 07:45:29;;;;;;;19.13;15.57;;;10.00;99.90;;;;;;5014531;28;20437;-72
2021/04/29 07:47:55;;;;;;;19.87;16.03;;;10.10;99.90;;;;;;5023995;28;20452;-72
2021/04/29 07:50:21;;;;;;;19.23;15.17;;;10.20;99.90;;;;;;5016904;28;20556;-72
2021/04/29 07:52:47;;;;;;;21.50;15.10;;;10.30;99.90;;;;;;5014309;28;20778;-72
2021/04/29 07:55:15;;;;;;;18.60;15.53;;;10.20;99.90;;;;;;5013090;28;20433;-72
2021/04/29 07:57:41;;;;;;;17.93;16.03;;;10.30;99.90;;;;;;5011034;28;20437;-72
2021/04/29 08:00:09;;;;;;;17.80;14.90;;;10.50;99.90;;;;;;5015701;28;20930;-72
2021/04/29 08:02:35;;;;;;;15.50;13.00;;;10.50;99.90;;;;;;5015659;28;20353;-71
2021/04/29 08:05:00;;;;;;;23.60;17.03;;;10.50;99.90;;;;;;5004883;28;20457;-71
2021/04/29 08:07:26;;;;;;;17.23;15.43;;;10.60;99.90;;;;;;5016854;28;20205;-71
2021/04/29 08:09:54;;;;;;;17.37;14.87;;;10.60;99.90;;;;;;5017100;28;20194;-71
2021/04/29 08:12:20;;;;;;;16.77;14.93;;;10.60;99.90;;;;;;5015673;28;20456;-71
2021/04/29 08:14:45;;;;;;;19.87;16.10;;;10.60;99.90;;;;;;5018109;28;20413;-69
2021/04/29 08:17:11;;;;;;;19.70;15.80;;;10.70;99.90;;;;;;5021026;28;20178;-72
2021/04/29 08:19:37;;;;;;;18.17;16.27;;;10.80;99.90;;;;;;5022130;28;20170;-72
2021/04/29 08:22:05;;;;;;;19.20;16.53;;;10.70;99.90;;;;;;5020510;28;20179;-69
2021/04/29 08:24:31;;;;;;;19.73;15.47;;;10.50;99.90;;;;;;5021317;28;20882;-70
2021/04/29 08:26:57;;;;;;;20.07;17.07;;;10.50;99.90;;;;;;5021260;28;20429;-70
2021/04/29 08:29:23;;;;;;;18.50;15.60;;;10.60;99.90;;;;;;5020270;28;20422;-70
2021/04/29 08:31:52;;;;;;;16.63;14.83;;;10.70;99.90;;;;;;5020193;28;20645;-71
2021/04/29 08:34:17;;;;;;;19.83;16.10;;;10.90;99.90;;;;;;5013972;28;20511;-70
2021/04/29 08:36:43;;;;;;;22.83;18.30;;;10.80;99.90;;;;;;5019422;28;20425;-70
2021/04/29 08:39:09;;;;;;;18.97;15.03;;;10.80;99.90;;;;;;5019781;28;20487;-71
2021/04/29 08:41:35;;;;;;;16.93;15.13;;;10.80;99.90;;;;;;5022918;28;20181;-70
2021/04/29 08:44:02;;;;;;;16.80;15.20;;;10.70;99.90;;;;;;5022462;28;20541;-71
2021/04/29 08:46:28;;;;;;;16.67;14.97;;;10.60;99.90;;;;;;5020354;28;20436;-71
2021/04/29 08:48:55;;;;;;;18.53;16.63;;;10.60;99.90;;;;;;5009171;28;20444;-71
2021/04/29 08:51:22;;;;;;;19.37;17.30;;;10.40;99.90;;;;;;5012698;28;20186;-71
2021/04/29 08:53:49;;;;;;;18.17;15.77;;;10.40;99.90;;;;;;5010899;28;20457;-71
2021/04/29 08:56:20;;;;;;;19.67;16.20;;;10.40;99.90;;;;;;5010445;28;20776;-72
2021/04/29 08:58:46;;;;;;;18.93;16.03;;;10.50;99.90;;;;;;5010531;28;20444;-72
2021/04/29 09:01:12;;;;;;;17.60;15.63;;;10.40;99.90;;;;;;5008021;28;20424;-72
2021/04/29 09:03:39;;;;;;;19.00;15.00;;;10.40;99.90;;;;;;5011092;28;20186;-72
2021/04/29 09:06:05;;;;;;;16.57;14.93;;;10.40;99.90;;;;;;5006334;28;20460;-72
2021/04/29 09:08:33;;;;;;;17.17;15.33;;;10.50;99.90;;;;;;5010698;28;20428;-71
2021/04/29 09:11:28;;;;;;;20.43;15.73;;;10.60;99.90;;;;;;5007572;28;20182;-72
2021/04/29 09:13:55;;;;;;;19.93;17.93;;;10.60;99.90;;;;;;4998599;28;20469;-72
2021/04/29 09:16:21;;;;;;;18.60;16.60;;;10.60;99.90;;;;;;5011239;28;21031;-71
2021/04/29 09:18:48;;;;;;;20.10;17.10;;;10.70;99.90;;;;;;5008047;28;20528;-71
2021/04/29 09:21:14;;;;;;;24.50;17.80;;;10.80;99.90;;;;;;5015748;28;20798;-71
2021/04/29 09:23:46;;;;;;;19.33;15.90;;;10.70;99.90;;;;;;5016327;28;20494;-71
2021/04/29 09:26:16;;;;;;;22.43;17.17;;;10.60;99.90;;;;;;5014415;28;20918;-71
2021/04/29 09:28:47;;;;;;;17.03;15.30;;;10.80;99.90;;;;;;5015336;28;20443;-71
2021/04/29 09:31:16;;;;;;;21.03;16.73;;;10.70;99.90;;;;;;5009503;28;20430;-71
2021/04/29 09:33:48;;;;;;;22.50;17.70;;;10.80;99.90;;;;;;5009564;28;20486;-71
2021/04/29 09:36:31;;;;;;;21.00;18.73;;;10.80;99.90;;;;;;5009662;28;20417;-71
2021/04/29 09:39:00;;;;;;;23.40;18.53;;;10.90;99.90;;;;;;5006745;28;20430;-71
2021/04/29 09:41:31;;;;;;;20.00;16.77;;;11.00;99.90;;;;;;5011599;28;20483;-71
2021/04/29 09:44:00;;;;;;;24.27;17.40;;;11.00;99.90;;;;;;5028373;28;20484;-71
2021/04/29 09:46:37;;;;;;;25.03;18.10;;;11.10;99.90;;;;;;5012417;28;20440;-71
2021/04/29 09:49:14;;;;;;;21.47;19.03;;;11.00;99.90;;;;;;5014268;28;20490;-72
2021/04/29 09:51:40;;;;;;;21.50;19.27;;;11.00;99.90;;;;;;5010296;28;20483;-71
2021/04/29 09:54:06;;;;;;;21.00;18.90;;;10.90;99.90;;;;;;5016480;28;20465;-71
2021/04/29 09:56:31;;;;;;;22.67;18.50;;;10.80;99.90;;;;;;5013857;28;20175;-71
2021/04/29 09:58:58;;;;;;;24.10;18.60;;;10.80;99.90;;;;;;5011507;28;20182;-71
2021/04/29 10:01:27;;;;;;;21.30;18.53;;;10.90;99.90;;;;;;5007784;28;20182;-71
2021/04/29 10:03:56;;;;;;;22.40;18.33;;;11.00;99.90;;;;;;5011286;28;20441;-71
2021/04/29 10:06:22;;;;;;;21.23;17.70;;;11.00;99.90;;;;;;5009642;28;20464;-71
2021/04/29 10:08:50;;;;;;;21.07;18.83;;;11.00;99.90;;;;;;5008226;28;20495;-72
2021/04/29 10:11:23;;;;;;;23.17;20.30;;;11.00;99.90;;;;;;5006300;28;20464;-71
2021/04/29 10:14:00;;;;;;;19.77;17.70;;;10.90;99.90;;;;;;5008249;28;23033;-71
2021/04/29 10:16:28;;;;;;;24.37;19.73;;;10.70;99.90;;;;;;5010741;28;20416;-71
2021/04/29 10:18:55;;;;;;;20.93;18.50;;;10.70;99.90;;;;;;5011292;28;20475;-71
2021/04/29 10:21:22;;;;;;;23.93;20.13;;;10.70;99.90;;;;;;5007509;28;20841;-72
2021/04/29 10:23:48;;;;;;;21.37;18.47;;;10.80;99.90;;;;;;5013746;28;20440;-71
2021/04/29 10:26:29;;;;;;;25.00;19.97;;;10.80;99.90;;;;;;5010271;28;20516;-71
2021/04/29 10:28:59;;;;;;;21.60;18.70;;;10.70;99.90;;;;;;5014814;28;20437;-71
2021/04/29 10:31:31;;;;;;;22.67;18.00;;;10.70;99.90;;;;;;5014452;28;20784;-71
2021/04/29 10:34:02;;;;;;;23.60;18.60;;;10.70;99.90;;;;;;5011676;28;20454;-71
2021/04/29 10:36:38;;;;;;;20.67;18.03;;;10.80;99.90;;;;;;5010507;28;21211;-71
2021/04/29 10:39:14;;;;;;;21.60;19.30;;;10.70;99.90;;;;;;5009546;28;20575;-71
2021/04/29 10:41:41;;;;;;;25.37;20.10;;;10.70;99.90;;;;;;5008031;28;20514;-72
2021/04/29 10:44:15;;;;;;;21.40;19.10;;;10.50;99.90;;;;;;5007239;28;20770;-72
2021/04/29 10:46:42;;;;;;;24.83;20.50;;;10.50;99.90;;;;;;5011742;28;20444;-71
2021/04/29 10:49:09;;;;;;;22.93;18.63;;;10.40;99.90;;;;;;5017638;28;20796;-71
2021/04/29 10:51:41;;;;;;;22.83;19.30;;;10.40;99.90;;;;;;5013211;28;20914;-71
2021/04/29 10:54:23;;;;;;;25.53;20.13;;;10.40;99.90;;;;;;5013408;28;20460;-71
2021/04/29 10:57:08;;;;;;;21.90;19.57;;;10.30;99.90;;;;;;5013170;28;20926;-71
2021/04/29 10:59:53;;;;;;;22.50;19.57;;;10.30;99.90;;;;;;5009944;28;20436;-70
2021/04/29 11:02:32;;;;;;;22.13;18.80;;;10.40;99.90;;;;;;5019867;28;20421;-70
2021/04/29 11:04:58;;;;;;;22.33;18.63;;;10.40;99.90;;;;;;5020705;28;20428;-70
2021/04/29 11:07:27;;;;;;;21.43;19.13;;;10.50;99.90;;;;;;5022072;28;20428;-70
2021/04/29 11:10:05;;;;;;;27.53;20.27;;;10.50;99.90;;;;;;5023452;28;20471;-70
2021/04/29 11:12:47;;;;;;;24.87;20.57;;;10.50;99.90;;;;;;5013677;28;20433;-71
2021/04/29 11:15:23;;;;;;;23.57;21.03;;;10.50;99.90;;;;;;5020383;28;20430;-70
2021/04/29 11:18:15;;;;;;;25.37;19.20;;;10.60;99.90;;;;;;5020174;28;20761;-70
2021/04/29 11:20:45;;;;;;;22.90;20.47;;;10.70;99.90;;;;;;5022467;28;20448;-70
2021/04/29 11:23:11;;;;;;;21.90;19.50;;;10.70;99.90;;;;;;5021192;28;20396;-70
2021/04/29 11:25:38;;;;;;;21.47;19.17;;;10.70;99.90;;;;;;5009117;28;20499;-70
2021/04/29 11:28:05;;;;;;;24.87;20.60;;;10.80;99.90;;;;;;5015162;28;20428;-70
2021/04/29 11:30:30;;;;;;;22.90;19.33;;;10.80;99.90;;;;;;5012576;28;20459;-70
2021/04/29 11:33:08;;;;;;;24.20;20.67;;;10.90;99.90;;;;;;5010495;28;20560;-70
2021/04/29 11:35:37;;;;;;;22.27;20.07;;;11.10;99.90;;;;;;5010831;28;20244;-70
2021/04/29 11:38:07;;;;;;;25.73;19.73;;;11.10;99.90;;;;;;5011687;28;20430;-71
2021/04/29 11:40:34;;;;;;;22.73;20.27;;;11.10;99.90;;;;;;5013074;28;21067;-71
2021/04/29 11:43:01;;;;;;;21.63;18.30;;;11.10;99.90;;;;;;5010743;28;20444;-71
2021/04/29 11:45:35;;;;;;;22.20;19.00;;;11.10;99.90;;;;;;5009433;28;21002;-71
2021/04/29 11:48:07;;;;;;;19.87;17.57;;;11.20;99.90;;;;;;5014171;28;20590;-71
2021/04/29 11:50:53;;;;;;;19.27;17.23;;;11.20;99.90;;;;;;5010531;28;20441;-72
2021/04/29 11:53:24;;;;;;;20.43;17.73;;;11.20;99.90;;;;;;5010455;28;20959;-72
2021/04/29 11:55:59;;;;;;;22.07;17.60;;;11.20;99.90;;;;;;5014056;28;20416;-72
2021/04/29 11:58:25;;;;;;;25.63;20.50;;;11.10;99.90;;;;;;5014038;28;20440;-72
2021/04/29 12:00:53;;;;;;;23.90;19.57;;;11.10;99.90;;;;;;5022704;28;20461;-72
2021/04/29 12:03:20;;;;;;;19.60;17.60;;;11.00;99.90;;;;;;5015176;28;20536;-70
2021/04/29 12:05:48;;;;;;;22.13;17.63;;;11.00;99.90;;;;;;5018256;28;20441;-71
2021/04/29 12:08:17;;;;;;;21.53;19.23;;;10.90;99.90;;;;;;5014611;28;20476;-71
2021/04/29 12:10:45;;;;;;;22.70;19.33;;;11.00;99.90;;;;;;5015545;28;20889;-71
2021/04/29 12:13:12;;;;;;;23.20;20.53;;;10.90;99.90;;;;;;5015554;28;20554;-71
2021/04/29 12:15:38;;;;;;;22.73;19.50;;;10.90;99.90;;;;;;5014878;28;20433;-71
2021/04/29 12:18:04;;;;;;;22.07;18.90;;;11.00;99.90;;;;;;5019451;28;20879;-70
2021/04/29 12:20:31;;;;;;;22.30;18.30;;;11.00;99.90;;;;;;5013453;28;20217;-71
2021/04/29 12:22:57;;;;;;;21.37;18.60;;;11.00;99.90;;;;;;5011171;28;20437;-71
2021/04/29 12:25:23;;;;;;;21.13;18.90;;;11.10;99.90;;;;;;5016550;28;20494;-71
2021/04/29 12:27:49;;;;;;;19.17;17.27;;;11.00;99.90;;;;;;5021319;28;20887;-71
2021/04/29 12:30:15;;;;;;;21.10;17.73;;;10.90;99.90;;;;;;5020308;28;20632;-71
2021/04/29 12:32:44;;;;;;;23.80;18.33;;;11.00;99.90;;;;;;5020085;28;20972;-72
2021/04/29 12:35:26;;;;;;;21.33;18.80;;;11.00;99.90;;;;;;5017588;28;20429;-71